New Pittsburg, Indiana
Current Conditions -  °F | °C
As of 9:15 AM on Tuesday 21 Oct 2014 (Local Time) from KVES Reporting Station
Overcast Overcast  
Wind Chill: 42°   Ceiling: 2200
Heat Index: 46°   Visibility: 10mi
Dew Point: 45°   Wind: 9mph
Humidity: 93%   Direction: 330°NNW
Pressure: 30.01"   Gusts: 16mph
Location:  40.2091°N, 84.8536°W
Report Text: KVES 211315Z AUTO 33008G14KT 10SM BKN022 OVC060 08/07 A3001 RMK AO2
Loading
Personal Weather Stations






























Interactive Weather Map
Tropical Storm Tracking
New forecast layout! Learn more

10-Day Weather Forecast

Advertisements
Track Severe Weather on mobile